Time;durP1;ratioP1;P1;durP2;ratioP2;P2;SDS_P1;SDS_P2;PMS_P1;PMS_P2;Temp;Humidity;BMP_temperature;BMP_pressure;BME280_temperature;BME280_humidity;BME280_pressure;Samples;Min_cycle;Max_cycle;Signal;HPM_P1;HPM_P2
2022/11/17 00:01:14;;;;;;;1.50;1.50;;;;;;;;;;4974165;28;20809;-66
2022/11/17 00:03:40;;;;;;;1.60;1.50;;;;;;;;;;4974204;28;20465;-66
2022/11/17 00:06:06;;;;;;;2.50;2.00;;;;;;;;;;4974029;28;20426;-66
2022/11/17 00:08:32;;;;;;;2.50;2.40;;;;;;;;;;4974502;28;20944;-66
2022/11/17 00:10:59;;;;;;;8.83;3.07;;;;;;;;;;4974487;28;20442;-67
2022/11/17 00:16:12;;;;;;;5.80;3.20;;;;;;;;;;4974304;28;20751;-66
2022/11/17 00:21:25;;;;;;;4.53;2.63;;;;;;;;;;4974315;28;20419;-66
2022/11/17 00:23:51;;;;;;;3.90;3.27;;;;;;;;;;4974301;28;20470;-66
2022/11/17 00:26:28;;;;;;;3.90;3.60;;;;;;;;;;4973960;28;20433;-68
2022/11/17 00:28:54;;;;;;;5.53;5.03;;;;;;;;;;4974071;28;20404;-67
2022/11/17 00:34:07;;;;;;;3.80;3.40;;;;;;;;;;4974345;28;20469;-66
2022/11/17 00:36:34;;;;;;;3.00;2.90;;;;;;;;;;4974423;28;20482;-67
2022/11/17 00:38:59;;;;;;;4.00;3.53;;;;;;;;;;4975178;28;20410;-66
2022/11/17 00:41:25;;;;;;;4.77;3.90;;;;;;;;;;4977603;28;20917;-66
2022/11/17 00:46:55;;;;;;;2.63;2.47;;;;;;;;;;4977619;28;20396;-66
2022/11/17 00:49:24;;;;;;;3.53;3.00;;;;;;;;;;4977503;28;20417;-65
2022/11/17 00:51:51;;;;;;;3.10;3.00;;;;;;;;;;4977194;28;20421;-66
2022/11/17 00:54:17;;;;;;;11.13;3.60;;;;;;;;;;4977768;28;20386;-66
2022/11/17 00:56:43;;;;;;;4.53;4.27;;;;;;;;;;4977245;28;20441;-66
2022/11/17 00:59:09;;;;;;;5.30;4.80;;;;;;;;;;4977345;28;20452;-66
2022/11/17 01:01:35;;;;;;;5.23;4.77;;;;;;;;;;4977250;28;20414;-66
2022/11/17 01:04:04;;;;;;;3.27;3.07;;;;;;;;;;4977237;28;20474;-66
2022/11/17 01:06:34;;;;;;;6.40;3.20;;;;;;;;;;4977403;28;20414;-67
2022/11/17 01:09:01;;;;;;;2.47;2.47;;;;;;;;;;4977393;28;20422;-67
2022/11/17 01:11:27;;;;;;;4.40;3.77;;;;;;;;;;4977073;28;20501;-65
2022/11/17 01:13:54;;;;;;;4.70;4.23;;;;;;;;;;4976971;28;20574;-66
2022/11/17 01:16:20;;;;;;;3.67;3.37;;;;;;;;;;4977079;28;20418;-67
2022/11/17 01:18:48;;;;;;;3.87;3.63;;;;;;;;;;4976986;28;20418;-66
2022/11/17 01:21:15;;;;;;;3.43;3.23;;;;;;;;;;4977110;28;20910;-66
2022/11/17 01:23:42;;;;;;;7.10;3.97;;;;;;;;;;4976679;28;20505;-66
2022/11/17 01:26:10;;;;;;;18.40;3.80;;;;;;;;;;4976853;28;20520;-67
2022/11/17 01:28:36;;;;;;;5.10;3.93;;;;;;;;;;4976660;28;20422;-67
2022/11/17 01:31:04;;;;;;;4.00;3.70;;;;;;;;;;4976991;28;20469;-66
2022/11/17 01:33:30;;;;;;;3.07;3.07;;;;;;;;;;4977502;28;20465;-67
2022/11/17 01:35:59;;;;;;;3.70;3.47;;;;;;;;;;4976607;28;20430;-66
2022/11/17 01:38:25;;;;;;;2.87;2.67;;;;;;;;;;4976888;28;20506;-66
2022/11/17 01:40:51;;;;;;;2.27;2.27;;;;;;;;;;4976949;28;20460;-66
2022/11/17 01:43:34;;;;;;;1.70;1.53;;;;;;;;;;4992100;28;20437;-67
2022/11/17 01:46:00;;;;;;;3.33;1.27;;;;;;;;;;4976828;28;20409;-67
2022/11/17 01:48:25;;;;;;;2.30;1.30;;;;;;;;;;4976483;28;20422;-66
2022/11/17 01:50:51;;;;;;;1.77;1.67;;;;;;;;;;4976270;28;20418;-66
2022/11/17 01:53:18;;;;;;;1.93;1.90;;;;;;;;;;4976115;28;20513;-66
2022/11/17 01:55:55;;;;;;;5.83;2.30;;;;;;;;;;4991709;28;20429;-68
2022/11/17 01:58:23;;;;;;;2.10;2.00;;;;;;;;;;4976511;28;20457;-66
2022/11/17 02:00:48;;;;;;;5.20;2.03;;;;;;;;;;4976437;28;20406;-67
2022/11/17 02:03:14;;;;;;;1.40;1.40;;;;;;;;;;4976318;28;20949;-66
2022/11/17 02:05:49;;;;;;;0.93;0.93;;;;;;;;;;4976315;28;20553;-67
2022/11/17 02:08:15;;;;;;;1.80;1.80;;;;;;;;;;4976382;28;20424;-67
2022/11/17 02:10:41;;;;;;;0.93;0.93;;;;;;;;;;4976282;28;20421;-66
2022/11/17 02:13:08;;;;;;;0.60;0.60;;;;;;;;;;4975870;28;20422;-66
2022/11/17 02:15:34;;;;;;;0.60;0.60;;;;;;;;;;4976489;28;20913;-67
2022/11/17 02:18:00;;;;;;;0.40;0.40;;;;;;;;;;4990747;28;20533;-66
2022/11/17 02:20:26;;;;;;;1.80;0.87;;;;;;;;;;4975832;28;20426;-66
2022/11/17 02:22:58;;;;;;;0.90;0.50;;;;;;;;;;4990772;28;20803;-66
2022/11/17 02:25:24;;;;;;;0.97;0.60;;;;;;;;;;4975936;28;20217;-66
2022/11/17 02:27:56;;;;;;;0.90;0.90;;;;;;;;;;4975908;28;20422;-66
2022/11/17 02:30:23;;;;;;;0.40;0.40;;;;;;;;;;4976035;28;20402;-66
2022/11/17 02:33:15;;;;;;;0.33;0.33;;;;;;;;;;4975814;28;20440;-66
2022/11/17 02:35:41;;;;;;;0.30;0.30;;;;;;;;;;4982101;28;20418;-66
2022/11/17 02:38:07;;;;;;;0.80;0.80;;;;;;;;;;4976154;28;20746;-66
2022/11/17 02:40:53;;;;;;;0.30;0.30;;;;;;;;;;4975437;28;20767;-66
2022/11/17 02:46:07;;;;;;;0.40;0.40;;;;;;;;;;4975660;28;20775;-66
2022/11/17 02:48:35;;;;;;;0.30;0.30;;;;;;;;;;4975284;28;20472;-67
2022/11/17 02:51:03;;;;;;;0.30;0.30;;;;;;;;;;4975305;28;20425;-67
2022/11/17 02:53:29;;;;;;;2.17;0.30;;;;;;;;;;4974995;28;20957;-66
2022/11/17 02:55:58;;;;;;;0.40;0.40;;;;;;;;;;4975558;28;20414;-68
2022/11/17 02:58:24;;;;;;;0.40;0.40;;;;;;;;;;4975683;28;20423;-67
2022/11/17 03:00:50;;;;;;;0.40;0.40;;;;;;;;;;4975355;28;20988;-66
2022/11/17 03:03:24;;;;;;;0.30;0.30;;;;;;;;;;4989491;28;20437;-66
2022/11/17 03:06:08;;;;;;;0.77;0.50;;;;;;;;;;4975347;28;20181;-67
2022/11/17 03:08:56;;;;;;;0.30;0.30;;;;;;;;;;4975266;28;20939;-67
2022/11/17 03:11:25;;;;;;;0.23;0.23;;;;;;;;;;4975340;28;20418;-66
2022/11/17 03:14:06;;;;;;;0.30;0.30;;;;;;;;;;4974760;28;20929;-67
2022/11/17 03:16:42;;;;;;;0.33;0.33;;;;;;;;;;4975199;28;20429;-66
2022/11/17 03:19:17;;;;;;;0.50;0.40;;;;;;;;;;4975143;28;20409;-66
2022/11/17 03:21:50;;;;;;;0.50;0.37;;;;;;;;;;4975039;28;20421;-66
2022/11/17 03:24:29;;;;;;;0.83;0.40;;;;;;;;;;4974948;28;20516;-66
2022/11/17 03:27:00;;;;;;;0.30;0.30;;;;;;;;;;4974785;28;20798;-66
2022/11/17 03:29:28;;;;;;;0.40;0.40;;;;;;;;;;4974766;28;20403;-66
2022/11/17 03:31:57;;;;;;;2.90;0.40;;;;;;;;;;4974874;28;20430;-67
2022/11/17 03:34:24;;;;;;;0.40;0.40;;;;;;;;;;4975054;28;20504;-66
2022/11/17 03:36:53;;;;;;;0.60;0.30;;;;;;;;;;4974651;28;20422;-67
2022/11/17 03:39:25;;;;;;;0.30;0.30;;;;;;;;;;4974766;28;20410;-67
2022/11/17 03:41:54;;;;;;;0.40;0.40;;;;;;;;;;4974880;28;20466;-67
2022/11/17 03:44:22;;;;;;;0.40;0.40;;;;;;;;;;4974588;28;20487;-66
2022/11/17 03:46:48;;;;;;;0.30;0.30;;;;;;;;;;4974419;28;20426;-66
2022/11/17 03:49:19;;;;;;;0.53;0.37;;;;;;;;;;4974768;28;20452;-67
2022/11/17 03:51:45;;;;;;;0.67;0.40;;;;;;;;;;4974434;28;20410;-68
2022/11/17 03:54:12;;;;;;;0.60;0.60;;;;;;;;;;4974591;28;20863;-67
2022/11/17 03:56:54;;;;;;;4.33;0.33;;;;;;;;;;4974305;28;20432;-66
2022/11/17 03:59:46;;;;;;;0.30;0.30;;;;;;;;;;4974402;28;20755;-67
2022/11/17 04:02:19;;;;;;;2.00;0.40;;;;;;;;;;4973649;28;20425;-67
2022/11/17 04:07:44;;;;;;;0.50;0.50;;;;;;;;;;4983617;28;20433;-67
2022/11/17 04:10:15;;;;;;;0.30;0.30;;;;;;;;;;4974751;28;20422;-66
2022/11/17 04:18:11;;;;;;;0.30;0.30;;;;;;;;;;4978658;28;20437;-67
2022/11/17 04:20:37;;;;;;;3.73;0.30;;;;;;;;;;4978215;28;20421;-68
2022/11/17 04:23:07;;;;;;;0.50;0.50;;;;;;;;;;4978191;28;20413;-66
2022/11/17 04:31:17;;;;;;;0.67;0.50;;;;;;;;;;4987545;28;20425;-66
2022/11/17 04:33:45;;;;;;;0.40;0.40;;;;;;;;;;4977774;28;20434;-66
2022/11/17 04:36:11;;;;;;;0.70;0.30;;;;;;;;;;4977492;28;20779;-67
2022/11/17 04:38:40;;;;;;;0.40;0.40;;;;;;;;;;4978017;28;20422;-66
2022/11/17 04:43:52;;;;;;;0.40;0.40;;;;;;;;;;4990795;28;20875;-66
2022/11/17 04:46:18;;;;;;;0.97;0.40;;;;;;;;;;4977473;28;20425;-66
2022/11/17 04:48:46;;;;;;;0.40;0.40;;;;;;;;;;4977553;28;20464;-66
2022/11/17 04:51:12;;;;;;;0.80;0.47;;;;;;;;;;4977745;28;20425;-66
2022/11/17 04:53:38;;;;;;;0.50;0.50;;;;;;;;;;4977929;28;20853;-66
2022/11/17 04:56:04;;;;;;;0.77;0.70;;;;;;;;;;4977357;28;20926;-67
2022/11/17 04:58:30;;;;;;;0.60;0.33;;;;;;;;;;4977622;28;20414;-68
2022/11/17 05:01:11;;;;;;;0.70;0.50;;;;;;;;;;4977320;28;20471;-66
2022/11/17 05:03:37;;;;;;;0.40;0.40;;;;;;;;;;4977429;28;20814;-68
2022/11/17 05:06:03;;;;;;;0.57;0.57;;;;;;;;;;4977166;28;20422;-66
2022/11/17 05:08:29;;;;;;;3.80;0.40;;;;;;;;;;4977250;28;20919;-67
2022/11/17 05:13:41;;;;;;;1.07;0.57;;;;;;;;;;4977359;28;20398;-68
2022/11/17 05:18:52;;;;;;;1.40;0.57;;;;;;;;;;4977226;28;20398;-66
2022/11/17 05:21:18;;;;;;;0.67;0.60;;;;;;;;;;4977162;28;20422;-68
2022/11/17 05:26:48;;;;;;;0.50;0.50;;;;;;;;;;4977123;28;20948;-67
2022/11/17 05:29:15;;;;;;;0.60;0.60;;;;;;;;;;4977045;28;20437;-66
2022/11/17 05:31:41;;;;;;;0.50;0.50;;;;;;;;;;4977066;28;20414;-67
2022/11/17 05:34:08;;;;;;;2.13;0.60;;;;;;;;;;4976699;28;20534;-66
2022/11/17 05:36:34;;;;;;;1.73;0.60;;;;;;;;;;4977194;28;20418;-66
2022/11/17 05:39:00;;;;;;;0.50;0.50;;;;;;;;;;4976602;28;20506;-67
2022/11/17 05:41:27;;;;;;;1.33;0.77;;;;;;;;;;4976864;28;20529;-66
2022/11/17 05:43:53;;;;;;;2.13;2.07;;;;;;;;;;4976376;28;20477;-66
2022/11/17 05:46:20;;;;;;;1.20;1.20;;;;;;;;;;4976775;28;20422;-67
2022/11/17 05:48:48;;;;;;;0.53;0.53;;;;;;;;;;4976804;28;20422;-67
2022/11/17 05:51:14;;;;;;;0.87;0.40;;;;;;;;;;4975906;28;20446;-66
2022/11/17 05:53:40;;;;;;;0.60;0.60;;;;;;;;;;4976219;28;20505;-66
2022/11/17 05:56:27;;;;;;;0.60;0.60;;;;;;;;;;4976223;28;20429;-66
2022/11/17 05:59:13;;;;;;;1.10;0.50;;;;;;;;;;4977013;28;20419;-66
2022/11/17 06:01:43;;;;;;;1.07;0.50;;;;;;;;;;4976623;28;20762;-66
2022/11/17 06:04:09;;;;;;;1.67;0.40;;;;;;;;;;4990935;28;20887;-65
2022/11/17 06:06:37;;;;;;;0.70;0.63;;;;;;;;;;4976292;28;20422;-67
2022/11/17 06:09:03;;;;;;;6.27;0.70;;;;;;;;;;4976033;28;21017;-68
2022/11/17 06:11:29;;;;;;;1.93;0.80;;;;;;;;;;4976240;28;20855;-67
2022/11/17 06:13:55;;;;;;;1.27;0.77;;;;;;;;;;4976154;28;20441;-66
2022/11/17 06:16:22;;;;;;;4.17;1.00;;;;;;;;;;4990805;28;20426;-67
2022/11/17 06:18:53;;;;;;;2.80;1.00;;;;;;;;;;4976214;28;20438;-66
2022/11/17 06:21:19;;;;;;;1.57;0.80;;;;;;;;;;4975672;28;20405;-67
2022/11/17 06:23:47;;;;;;;5.53;0.73;;;;;;;;;;4976005;28;20480;-65
2022/11/17 06:26:13;;;;;;;3.43;0.60;;;;;;;;;;4975593;28;20437;-66
2022/11/17 06:28:40;;;;;;;2.93;1.10;;;;;;;;;;4975630;28;20577;-66
2022/11/17 06:31:06;;;;;;;1.27;0.60;;;;;;;;;;4975613;28;20489;-68
2022/11/17 06:33:33;;;;;;;2.00;1.03;;;;;;;;;;4975465;28;20428;-66
2022/11/17 06:36:01;;;;;;;3.20;0.70;;;;;;;;;;4975535;28;20430;-67
2022/11/17 06:38:28;;;;;;;2.23;0.80;;;;;;;;;;4975066;28;20445;-68
2022/11/17 06:40:54;;;;;;;0.93;0.93;;;;;;;;;;4975517;28;20422;-66
2022/11/17 06:43:20;;;;;;;2.40;2.20;;;;;;;;;;4975337;28;20429;-66
2022/11/17 06:45:46;;;;;;;2.10;1.40;;;;;;;;;;4975589;28;20540;-65
2022/11/17 06:48:14;;;;;;;1.53;0.80;;;;;;;;;;4976067;28;20467;-67
2022/11/17 06:50:40;;;;;;;5.37;0.97;;;;;;;;;;4975400;28;20758;-68
2022/11/17 06:53:07;;;;;;;1.43;0.87;;;;;;;;;;4974975;28;21033;-67
2022/11/17 06:55:34;;;;;;;1.17;1.00;;;;;;;;;;4975305;28;20414;-67
2022/11/17 06:58:06;;;;;;;1.23;0.60;;;;;;;;;;4974937;28;20528;-67
2022/11/17 07:00:32;;;;;;;3.60;0.80;;;;;;;;;;4975069;28;20422;-66
2022/11/17 07:03:02;;;;;;;3.67;1.53;;;;;;;;;;4975100;28;20417;-67
2022/11/17 07:05:28;;;;;;;2.00;0.87;;;;;;;;;;4975152;28;20564;-67
2022/11/17 07:07:58;;;;;;;0.93;0.50;;;;;;;;;;4974852;28;20529;-67
2022/11/17 07:10:24;;;;;;;2.33;0.50;;;;;;;;;;4975010;28;20417;-67
2022/11/17 07:12:50;;;;;;;10.50;0.67;;;;;;;;;;4974990;28;20414;-67
2022/11/17 07:15:16;;;;;;;0.53;0.53;;;;;;;;;;4974531;28;20493;-67
2022/11/17 07:17:42;;;;;;;0.60;0.60;;;;;;;;;;4974796;28;20505;-67
2022/11/17 07:20:09;;;;;;;1.67;0.60;;;;;;;;;;4989677;28;20438;-67
2022/11/17 07:22:36;;;;;;;1.23;1.23;;;;;;;;;;4974998;28;20429;-66
2022/11/17 07:25:02;;;;;;;0.43;0.37;;;;;;;;;;4974902;28;20469;-66
2022/11/17 07:27:29;;;;;;;0.97;0.60;;;;;;;;;;4975227;28;20500;-67
2022/11/17 07:29:55;;;;;;;1.03;0.73;;;;;;;;;;4974875;28;20414;-69
2022/11/17 07:32:21;;;;;;;2.80;0.90;;;;;;;;;;4974869;28;20465;-66
2022/11/17 07:34:47;;;;;;;1.83;0.50;;;;;;;;;;4974609;28;20418;-66
2022/11/17 07:37:13;;;;;;;1.67;0.67;;;;;;;;;;4975117;28;21029;-67
2022/11/17 07:39:39;;;;;;;0.67;0.67;;;;;;;;;;4974855;28;20450;-67
2022/11/17 07:42:05;;;;;;;1.17;0.83;;;;;;;;;;4974210;28;20414;-67
2022/11/17 07:44:31;;;;;;;1.13;0.50;;;;;;;;;;4974540;28;20465;-69
2022/11/17 07:46:57;;;;;;;0.87;0.50;;;;;;;;;;4989048;28;20437;-67
2022/11/17 07:49:24;;;;;;;2.03;1.00;;;;;;;;;;4974679;28;20506;-66
2022/11/17 07:51:51;;;;;;;0.53;0.53;;;;;;;;;;4974178;28;20457;-67
2022/11/17 07:54:17;;;;;;;0.60;0.60;;;;;;;;;;4974265;28;20421;-67
2022/11/17 07:56:43;;;;;;;2.50;0.50;;;;;;;;;;4974300;28;20425;-67
2022/11/17 07:59:09;;;;;;;1.60;0.80;;;;;;;;;;4974544;28;20418;-67
2022/11/17 08:01:35;;;;;;;1.40;0.90;;;;;;;;;;4974789;28;20485;-66
2022/11/17 08:04:01;;;;;;;1.80;0.83;;;;;;;;;;4974417;28;21045;-67
2022/11/17 08:06:27;;;;;;;3.10;0.83;;;;;;;;;;4974520;28;20514;-66
2022/11/17 08:08:53;;;;;;;1.03;0.73;;;;;;;;;;4974531;28;20521;-67
2022/11/17 08:11:19;;;;;;;4.07;0.50;;;;;;;;;;4974149;28;20418;-68
2022/11/17 08:13:45;;;;;;;0.50;0.50;;;;;;;;;;4974452;28;20430;-69
2022/11/17 08:16:12;;;;;;;4.57;3.73;;;;;;;;;;4974502;28;20783;-68
2022/11/17 08:18:39;;;;;;;0.50;0.50;;;;;;;;;;4974369;28;20434;-67
2022/11/17 08:21:09;;;;;;;1.03;1.00;;;;;;;;;;4974061;28;20953;-66
2022/11/17 08:23:36;;;;;;;1.00;0.87;;;;;;;;;;4974269;28;20505;-68
2022/11/17 08:26:02;;;;;;;2.00;0.60;;;;;;;;;;4974282;28;20426;-67
2022/11/17 08:28:28;;;;;;;0.60;0.40;;;;;;;;;;4989025;28;20454;-67
2022/11/17 08:30:54;;;;;;;0.70;0.70;;;;;;;;;;4974367;28;20426;-68
2022/11/17 08:33:20;;;;;;;1.03;0.40;;;;;;;;;;4974259;28;20418;-68
2022/11/17 08:35:46;;;;;;;0.93;0.60;;;;;;;;;;4973842;28;20870;-67
2022/11/17 08:38:17;;;;;;;4.77;0.80;;;;;;;;;;4974256;28;20942;-67
2022/11/17 08:40:44;;;;;;;0.73;0.43;;;;;;;;;;4974333;28;20413;-68
2022/11/17 08:43:10;;;;;;;3.00;0.70;;;;;;;;;;4974192;28;20421;-69
2022/11/17 08:45:36;;;;;;;0.63;0.50;;;;;;;;;;4973897;28;20962;-68
2022/11/17 08:48:03;;;;;;;0.90;0.77;;;;;;;;;;4974022;28;20422;-68
2022/11/17 08:50:29;;;;;;;0.60;0.60;;;;;;;;;;4973689;28;20426;-67
2022/11/17 08:52:55;;;;;;;1.10;0.60;;;;;;;;;;4973800;28;20462;-67
2022/11/17 08:55:20;;;;;;;0.73;0.73;;;;;;;;;;4974082;28;20942;-68
2022/11/17 08:57:46;;;;;;;1.27;0.70;;;;;;;;;;4973866;28;20428;-67
2022/11/17 09:00:13;;;;;;;5.27;0.90;;;;;;;;;;4989853;28;20426;-67
2022/11/17 09:02:39;;;;;;;1.60;0.50;;;;;;;;;;4977271;28;20500;-67
2022/11/17 09:05:05;;;;;;;1.43;0.97;;;;;;;;;;4977153;28;21000;-66
2022/11/17 09:07:33;;;;;;;3.80;0.70;;;;;;;;;;4977292;28;20493;-67
2022/11/17 09:09:59;;;;;;;0.50;0.50;;;;;;;;;;4992203;28;20442;-68
2022/11/17 09:12:25;;;;;;;1.43;1.30;;;;;;;;;;4977397;28;20426;-67
2022/11/17 09:14:51;;;;;;;0.47;0.30;;;;;;;;;;4977293;28;20441;-68
2022/11/17 09:17:16;;;;;;;1.30;0.70;;;;;;;;;;4977350;28;20453;-67
2022/11/17 09:19:42;;;;;;;1.43;0.60;;;;;;;;;;4976945;28;20524;-66
2022/11/17 09:22:08;;;;;;;0.87;0.73;;;;;;;;;;4977028;28;20433;-68
2022/11/17 09:24:34;;;;;;;0.80;0.57;;;;;;;;;;4976904;28;20579;-66
2022/11/17 09:27:02;;;;;;;2.40;0.67;;;;;;;;;;4977120;28;20510;-66
2022/11/17 09:29:28;;;;;;;1.43;1.33;;;;;;;;;;4976819;28;20422;-67
2022/11/17 09:31:54;;;;;;;1.47;0.57;;;;;;;;;;4976536;28;20933;-67
2022/11/17 09:34:20;;;;;;;6.43;0.67;;;;;;;;;;4976959;28;20422;-67
2022/11/17 09:36:47;;;;;;;0.87;0.87;;;;;;;;;;4976726;28;20770;-67
2022/11/17 09:39:14;;;;;;;5.53;1.30;;;;;;;;;;4992044;28;20769;-67
2022/11/17 09:41:44;;;;;;;1.30;0.70;;;;;;;;;;4976566;28;20414;-66
2022/11/17 09:44:10;;;;;;;2.40;1.17;;;;;;;;;;4976421;28;20462;-67
2022/11/17 09:46:39;;;;;;;4.00;1.33;;;;;;;;;;4976631;28;20465;-67
2022/11/17 09:49:10;;;;;;;3.13;2.80;;;;;;;;;;4976329;28;20439;-66
2022/11/17 09:51:37;;;;;;;5.43;2.87;;;;;;;;;;4975838;28;20417;-67
2022/11/17 09:54:07;;;;;;;2.00;0.90;;;;;;;;;;4976379;28;20434;-67
2022/11/17 09:56:33;;;;;;;3.83;1.17;;;;;;;;;;4976106;28;20922;-66
2022/11/17 09:59:04;;;;;;;8.63;1.60;;;;;;;;;;4976621;28;20742;-67
2022/11/17 10:01:30;;;;;;;4.30;1.20;;;;;;;;;;4976114;28;20429;-67
2022/11/17 10:03:58;;;;;;;3.27;1.00;;;;;;;;;;4976363;28;20481;-66
2022/11/17 10:06:24;;;;;;;4.67;1.67;;;;;;;;;;4976226;28;20477;-66
2022/11/17 10:08:50;;;;;;;2.17;1.47;;;;;;;;;;4991111;28;20434;-67
2022/11/17 10:11:32;;;;;;;2.80;1.30;;;;;;;;;;4975381;28;20609;-67
2022/11/17 10:14:07;;;;;;;1.10;1.10;;;;;;;;;;4975952;28;20402;-66
2022/11/17 10:16:33;;;;;;;3.33;1.13;;;;;;;;;;4975995;28;20878;-66
2022/11/17 10:19:16;;;;;;;2.73;1.17;;;;;;;;;;4976045;28;20941;-67
2022/11/17 10:21:43;;;;;;;2.40;1.10;;;;;;;;;;4990809;28;21038;-66
2022/11/17 10:24:09;;;;;;;1.57;1.07;;;;;;;;;;4990633;28;20905;-66
2022/11/17 10:27:01;;;;;;;2.90;1.43;;;;;;;;;;4975990;28;20426;-66
2022/11/17 10:29:27;;;;;;;2.23;0.90;;;;;;;;;;4976279;28;20908;-67
2022/11/17 10:31:54;;;;;;;13.33;1.50;;;;;;;;;;4975696;28;20414;-67
2022/11/17 10:34:30;;;;;;;7.17;2.10;;;;;;;;;;4975930;28;20418;-67
2022/11/17 10:36:59;;;;;;;1.60;1.10;;;;;;;;;;4975958;28;20498;-66
2022/11/17 10:39:35;;;;;;;5.50;1.57;;;;;;;;;;4975942;28;20411;-66
2022/11/17 10:42:03;;;;;;;4.03;1.20;;;;;;;;;;4975955;28;20407;-66
2022/11/17 10:44:29;;;;;;;8.80;1.90;;;;;;;;;;4975391;28;20468;-66
2022/11/17 10:47:00;;;;;;;3.63;1.00;;;;;;;;;;4975461;28;20433;-66
2022/11/17 10:49:27;;;;;;;5.50;1.33;;;;;;;;;;4975344;28;20403;-66
2022/11/17 10:52:23;;;;;;;3.20;1.50;;;;;;;;;;4975178;28;20422;-67
2022/11/17 10:54:49;;;;;;;4.63;1.47;;;;;;;;;;4979028;28;20497;-66
2022/11/17 10:57:17;;;;;;;6.83;2.20;;;;;;;;;;4975275;28;20967;-67
2022/11/17 10:59:43;;;;;;;6.10;2.03;;;;;;;;;;4975478;28;20449;-66
2022/11/17 11:02:28;;;;;;;10.00;2.60;;;;;;;;;;4975267;28;20423;-66
2022/11/17 11:05:05;;;;;;;4.77;2.03;;;;;;;;;;4975698;28;20492;-67
2022/11/17 11:07:31;;;;;;;8.47;2.63;;;;;;;;;;4975132;28;20410;-67
2022/11/17 11:10:02;;;;;;;6.17;4.33;;;;;;;;;;4975262;28;20820;-67
2022/11/17 11:12:32;;;;;;;12.27;2.37;;;;;;;;;;4975292;28;20402;-67
2022/11/17 11:14:59;;;;;;;9.50;2.27;;;;;;;;;;4974842;28;20430;-67
2022/11/17 11:17:27;;;;;;;9.23;1.40;;;;;;;;;;4974978;28;20410;-67
2022/11/17 11:19:53;;;;;;;13.70;2.27;;;;;;;;;;4975106;28;20529;-67
2022/11/17 11:22:33;;;;;;;10.10;1.50;;;;;;;;;;4974410;28;20442;-68
2022/11/17 11:25:02;;;;;;;10.70;2.30;;;;;;;;;;4974901;28;20473;-66
2022/11/17 11:27:48;;;;;;;4.23;2.47;;;;;;;;;;4974671;28;20409;-67
2022/11/17 11:30:17;;;;;;;10.47;2.93;;;;;;;;;;4974700;28;20436;-67
2022/11/17 11:33:04;;;;;;;13.20;5.33;;;;;;;;;;4974630;28;20488;-67
2022/11/17 11:35:30;;;;;;;7.80;4.33;;;;;;;;;;4974548;28;20768;-66
2022/11/17 11:37:59;;;;;;;17.47;8.17;;;;;;;;;;4974621;28;20890;-67
2022/11/17 11:40:45;;;;;;;25.10;12.20;;;;;;;;;;4974808;28;20581;-67
2022/11/17 11:43:36;;;;;;;16.33;5.60;;;;;;;;;;4974703;28;20403;-67
2022/11/17 11:46:07;;;;;;;8.03;2.90;;;;;;;;;;4974482;28;20512;-67
2022/11/17 11:48:36;;;;;;;13.30;4.60;;;;;;;;;;4974944;28;20875;-67
2022/11/17 11:51:10;;;;;;;21.27;9.90;;;;;;;;;;4974718;28;20429;-67
2022/11/17 11:53:58;;;;;;;24.23;5.80;;;;;;;;;;4974232;28;20962;-68
2022/11/17 11:56:31;;;;;;;11.37;4.60;;;;;;;;;;4974294;28;20418;-66
2022/11/17 11:59:01;;;;;;;16.07;6.07;;;;;;;;;;4974649;28;20406;-66
2022/11/17 12:01:31;;;;;;;40.00;14.23;;;;;;;;;;4974230;28;20428;-66
2022/11/17 12:04:21;;;;;;;28.83;11.63;;;;;;;;;;4974364;28;20474;-66
2022/11/17 12:07:09;;;;;;;41.60;16.90;;;;;;;;;;4974501;28;20414;-67
2022/11/17 12:09:41;;;;;;;18.30;8.60;;;;;;;;;;4974094;28;20445;-67
2022/11/17 12:12:09;;;;;;;21.50;10.40;;;;;;;;;;4974450;28;20524;-67
2022/11/17 12:14:36;;;;;;;9.57;6.13;;;;;;;;;;4975153;28;20418;-66
2022/11/17 12:17:02;;;;;;;21.33;7.40;;;;;;;;;;4975132;28;20429;-66
2022/11/17 12:19:43;;;;;;;10.63;3.80;;;;;;;;;;4974469;28;20425;-67
2022/11/17 12:22:18;;;;;;;12.80;5.73;;;;;;;;;;4973838;28;20426;-66
2022/11/17 12:24:45;;;;;;;9.80;3.33;;;;;;;;;;4974346;28;20461;-67
2022/11/17 12:27:29;;;;;;;8.83;2.30;;;;;;;;;;4974096;28;20418;-66
2022/11/17 12:29:55;;;;;;;12.30;6.60;;;;;;;;;;4988946;28;20426;-67
2022/11/17 12:32:50;;;;;;;9.10;3.00;;;;;;;;;;4973983;28;20414;-67
2022/11/17 12:35:28;;;;;;;10.77;4.93;;;;;;;;;;4975316;28;20422;-66
2022/11/17 12:38:16;;;;;;;8.70;5.10;;;;;;;;;;4977860;28;20914;-66
2022/11/17 12:40:43;;;;;;;9.33;4.03;;;;;;;;;;4978074;28;20501;-66
2022/11/17 12:43:15;;;;;;;10.63;6.53;;;;;;;;;;4977845;28;20513;-67
2022/11/17 12:45:53;;;;;;;18.20;5.43;;;;;;;;;;4977826;28;20473;-67
2022/11/17 12:48:19;;;;;;;11.17;4.40;;;;;;;;;;4977678;28;20418;-67
2022/11/17 12:50:50;;;;;;;6.43;3.30;;;;;;;;;;4977610;28;20781;-67
2022/11/17 12:53:22;;;;;;;11.20;4.03;;;;;;;;;;4977336;28;20524;-66
2022/11/17 12:56:08;;;;;;;17.10;6.83;;;;;;;;;;4977180;28;20509;-67
2022/11/17 12:59:01;;;;;;;4.90;2.60;;;;;;;;;;4977679;28;20475;-67
2022/11/17 13:01:34;;;;;;;19.33;5.00;;;;;;;;;;4983756;28;20426;-67
2022/11/17 13:04:07;;;;;;;6.93;1.97;;;;;;;;;;4977504;28;20535;-67
2022/11/17 13:06:33;;;;;;;10.17;2.13;;;;;;;;;;4977911;28;20812;-67
2022/11/17 13:09:00;;;;;;;14.27;5.73;;;;;;;;;;4977518;28;20453;-67
2022/11/17 13:11:27;;;;;;;4.53;1.87;;;;;;;;;;4977266;28;20417;-67
2022/11/17 13:14:12;;;;;;;5.63;2.60;;;;;;;;;;4977156;28;20441;-67
2022/11/17 13:16:43;;;;;;;4.97;2.73;;;;;;;;;;4977400;28;20414;-67
2022/11/17 13:19:28;;;;;;;4.87;2.03;;;;;;;;;;4977351;28;20476;-67
2022/11/17 13:22:23;;;;;;;4.03;3.27;;;;;;;;;;4977894;28;20429;-67
2022/11/17 13:24:49;;;;;;;2.70;1.23;;;;;;;;;;4980547;28;20520;-67
2022/11/17 13:27:26;;;;;;;3.17;1.60;;;;;;;;;;4977263;28;20418;-67
2022/11/17 13:29:52;;;;;;;72.47;31.07;;;;;;;;;;4977216;28;20489;-67
2022/11/17 13:32:23;;;;;;;44.30;28.47;;;;;;;;;;4977035;28;20414;-67
2022/11/17 13:34:55;;;;;;;8.90;3.77;;;;;;;;;;4976922;28;20513;-67
2022/11/17 13:37:22;;;;;;;6.93;2.60;;;;;;;;;;4976774;28;20445;-67
2022/11/17 13:39:59;;;;;;;2.20;0.83;;;;;;;;;;4977011;28;20785;-67
2022/11/17 13:42:27;;;;;;;5.03;1.63;;;;;;;;;;4976620;28;20512;-67
2022/11/17 13:44:54;;;;;;;1.10;1.03;;;;;;;;;;4976516;28;20473;-67
2022/11/17 13:47:21;;;;;;;2.77;0.97;;;;;;;;;;4976230;28;20429;-67
2022/11/17 13:49:47;;;;;;;1.20;1.10;;;;;;;;;;4976478;28;20453;-67
2022/11/17 13:52:27;;;;;;;5.03;1.20;;;;;;;;;;4976487;28;21072;-67
2022/11/17 13:54:53;;;;;;;3.17;0.70;;;;;;;;;;4976663;28;20403;-67
2022/11/17 13:57:23;;;;;;;7.17;1.57;;;;;;;;;;4976390;28;20926;-67
2022/11/17 13:59:49;;;;;;;1.50;0.83;;;;;;;;;;4976513;28;20934;-67
2022/11/17 14:05:21;;;;;;;2.07;1.97;;;;;;;;;;4976240;28;20464;-67
2022/11/17 14:07:48;;;;;;;4.83;0.87;;;;;;;;;;4976444;28;20484;-67
2022/11/17 14:10:20;;;;;;;7.60;1.33;;;;;;;;;;4976427;28;20414;-67
2022/11/17 14:12:46;;;;;;;1.57;0.93;;;;;;;;;;4991048;28;20426;-67
2022/11/17 14:15:14;;;;;;;0.93;0.63;;;;;;;;;;4976050;28;20418;-67
2022/11/17 14:17:40;;;;;;;2.97;1.47;;;;;;;;;;4976209;28;20780;-66
2022/11/17 14:20:19;;;;;;;2.73;0.67;;;;;;;;;;4976398;28;20418;-67
2022/11/17 14:23:04;;;;;;;0.83;0.50;;;;;;;;;;4975915;28;20414;-67
2022/11/17 14:25:33;;;;;;;4.90;1.23;;;;;;;;;;4975714;28;20953;-67
2022/11/17 14:28:00;;;;;;;5.00;0.90;;;;;;;;;;4976062;28;20418;-67
2022/11/17 14:30:26;;;;;;;2.00;1.33;;;;;;;;;;4990918;28;20493;-67
2022/11/17 14:32:52;;;;;;;3.00;1.23;;;;;;;;;;4975864;28;20418;-67
2022/11/17 14:35:18;;;;;;;2.87;0.63;;;;;;;;;;4975539;28;20430;-67
2022/11/17 14:37:44;;;;;;;4.43;1.23;;;;;;;;;;4975721;28;20418;-68
2022/11/17 14:40:14;;;;;;;6.63;0.90;;;;;;;;;;4975747;28;20533;-68
2022/11/17 14:42:40;;;;;;;2.13;0.60;;;;;;;;;;4975465;28;20476;-67
2022/11/17 14:45:07;;;;;;;1.90;0.90;;;;;;;;;;4975659;28;20516;-68
2022/11/17 14:47:33;;;;;;;1.27;0.70;;;;;;;;;;4975724;28;20418;-67
2022/11/17 14:49:59;;;;;;;0.90;0.90;;;;;;;;;;4975649;28;20425;-67
2022/11/17 14:52:25;;;;;;;0.57;0.57;;;;;;;;;;4975073;28;20484;-67
2022/11/17 14:54:51;;;;;;;4.23;1.23;;;;;;;;;;4975502;28;20425;-67
2022/11/17 14:57:17;;;;;;;7.00;2.70;;;;;;;;;;4975056;28;20421;-68
2022/11/17 14:59:43;;;;;;;2.50;0.57;;;;;;;;;;4975190;28;20906;-68
2022/11/17 15:02:10;;;;;;;0.63;0.63;;;;;;;;;;4975127;28;20563;-67
2022/11/17 15:04:39;;;;;;;2.13;0.63;;;;;;;;;;4974969;28;20473;-67
2022/11/17 15:07:05;;;;;;;1.37;1.10;;;;;;;;;;4975076;28;20938;-67
2022/11/17 15:09:31;;;;;;;3.63;1.00;;;;;;;;;;4975352;28;20500;-68
2022/11/17 15:11:57;;;;;;;2.70;1.10;;;;;;;;;;4975338;28;20782;-67
2022/11/17 15:14:22;;;;;;;2.50;1.87;;;;;;;;;;4974992;28;20443;-67
2022/11/17 15:16:49;;;;;;;12.60;3.93;;;;;;;;;;4974891;28;20433;-67
2022/11/17 15:19:14;;;;;;;4.87;1.20;;;;;;;;;;4975104;28;20812;-67
2022/11/17 15:21:40;;;;;;;8.20;1.23;;;;;;;;;;4974716;28;20425;-67
2022/11/17 15:24:08;;;;;;;2.60;0.60;;;;;;;;;;4974631;28;20469;-67
2022/11/17 15:26:34;;;;;;;1.80;0.60;;;;;;;;;;4974949;28;20508;-67
2022/11/17 15:29:00;;;;;;;1.37;0.57;;;;;;;;;;4974978;28;20450;-67
2022/11/17 15:31:26;;;;;;;3.03;1.40;;;;;;;;;;4974925;28;20485;-68
2022/11/17 15:33:52;;;;;;;1.40;1.30;;;;;;;;;;4974632;28;20422;-67
2022/11/17 15:36:19;;;;;;;1.43;1.33;;;;;;;;;;4974529;28;20440;-67